Flight Track Log - Related Links

Times and Time Zones

All times are in EDT time to prevent confusion due to time zone crossing. See the SCX8702 flight status page for this flight to view local times or setup timezone preferences in your user account.

Time Position Orientation Groundspeed Altitude Reporting Facility
EDT Latitude Longitude Course Direction KTS MPH feet Rate Location/Type
Thu 03:30:54 PM 33.3167 -111.6667 360° North 180 207 1,700  Level Phoenix TRACON
Thu 03:31:54 PM 33.3667 -111.6667 360° North 228 262 3,400 2,035 Climbing Phoenix TRACON
Thu 03:32:49 PM 33.3500 -111.6000 107° East 258 297 5,600 1,884 Climbing Phoenix TRACON
Thu 03:33:55 PM 33.3667 -111.5000 79° East 294 338 7,200 1,986 Climbing Phoenix TRACON
Thu 03:35:14 PM 33.4564 -111.4333 32° Northeast 302 348 10,400 2,170 Climbing Albuquerque Center
Thu 03:36:16 PM 33.5447 -111.3869 24° Northeast 343 395 12,300 2,274 Climbing Albuquerque Center
Thu 03:37:18 PM 33.6378 -111.3358 25° Northeast 365 420 15,100 1,872 Climbing Albuquerque Center
Thu 03:45:56 PM 34.0795 -110.1559 67° East 502 578 30,400 1,781 Climbing FlightAware ADS-B
Thu 03:46:00 PM 34.0696 -110.1260 64° Northeast  Level FlightAware Approximate
Thu 03:46:44 PM 34.1258 -110.0223 68° East 501 577 31,900  Level FlightAware ADS-B
Thu 03:49:09 PM 34.2420 -109.6845 68° East 492 566 34,800 869 Climbing FlightAware ADS-B
Thu 03:50:18 PM 34.3196 -109.4848 56° Northeast 480 552 35,000 63 Climbing FlightAware ADS-B
Thu 03:52:20 PM 34.4716 -109.2159 56° Northeast 478 550 35,000 160 Level FlightAware ADS-B
Thu 03:53:26 PM 34.5546 -109.0680 56° Northeast 482 555 35,500 465 Climbing FlightAware ADS-B
Thu 03:54:29 PM 34.6342 -108.9251 57° Northeast 486 559 36,000 162 Climbing FlightAware ADS-B
Thu 03:56:31 PM 34.7820 -108.6544 56° Northeast 480 552 36,000 299 Level FlightAware ADS-B
Thu 03:57:50 PM 34.8777 -108.4820 56° Northeast 478 550 37,000 432 Climbing FlightAware ADS-B
Thu 03:58:50 PM 34.9535 -108.3438 56° Northeast 477 549 37,000  Level FlightAware ADS-B
Thu 03:59:51 PM 35.0298 -108.2044 57° Northeast 478 550 37,000  Level FlightAware ADS-B
Thu 04:00:54 PM 35.1049 -108.0663 57° Northeast 478 550 37,000  Level FlightAware ADS-B
Thu 04:01:58 PM 35.1852 -107.9180 57° Northeast 480 552 37,000  Level FlightAware ADS-B
Thu 04:03:02 PM 35.2632 -107.7732 57° Northeast 480 552 37,000  Level FlightAware ADS-B
Thu 04:04:04 PM 35.3387 -107.6329 57° Northeast 480 552 37,000  Level FlightAware ADS-B
Thu 04:06:07 PM 35.4870 -107.3551 57° Northeast 475 547 37,000  Level FlightAware ADS-B
Thu 04:07:07 PM 35.5593 -107.2186 57° Northeast 477 549 37,000  Level FlightAware ADS-B
Thu 04:08:07 PM 35.6282 -107.0888 57° Northeast 477 549 37,000  Level FlightAware ADS-B
Thu 04:10:52 PM 35.8287 -106.7075 57° Northeast 479 551 37,000  Level FlightAware ADS-B
Thu 04:13:20 PM 36.0069 -106.3640 58° Northeast 486 559 37,000  Level FlightAware ADS-B
Thu 04:14:28 PM 36.0861 -106.2101 58° Northeast 485 558 37,000  Level FlightAware ADS-B
Thu 04:15:28 PM 36.1575 -106.0711 58° Northeast 482 555 37,000  Level FlightAware ADS-B
Thu 04:16:31 PM 36.2352 -105.9196 58° Northeast 484 557 37,000  Level FlightAware ADS-B
Thu 04:17:34 PM 36.3104 -105.7718 58° Northeast 482 555 37,000  Level FlightAware ADS-B
Thu 04:18:42 PM 36.3889 -105.6183 58° Northeast 483 556 37,000  Level Albuquerque Center
Thu 04:19:44 PM 36.4572 -105.4822 58° Northeast 483 556 37,000  Level Albuquerque Center
Thu 04:19:51 PM 36.4716 -105.4530 58° Northeast 485 558 37,000  Level FlightAware ADS-B
Thu 04:20:46 PM 36.5286 -105.3408 58° Northeast 482 555 37,000  Level Albuquerque Center
Thu 04:21:48 PM 36.6011 -105.1956 58° Northeast 484 557 37,000  Level Albuquerque Center
Thu 04:22:50 PM 36.6731 -105.0514 58° Northeast 485 558 37,000  Level Albuquerque Center
Thu 04:24:00 PM 36.7584 -104.9150 58° Northeast  Level FlightAware Approximate
Thu 04:24:43 PM 36.8064 -104.7808 58° Northeast 486 559 37,000  Level Denver Center
Thu 04:25:56 PM 36.9008 -104.5886 58° Northeast 488 562 37,000  Level Albuquerque Center
Thu 04:26:58 PM 36.9783 -104.4311 58° Northeast 492 566 37,000  Level Albuquerque Center
Thu 04:28:00 PM 37.0475 -104.2908 58° Northeast 492 566 37,000  Level Albuquerque Center
Thu 04:29:03 PM 37.1269 -104.1272 59° Northeast 493 567 37,000  Level Albuquerque Center
Thu 04:30:05 PM 37.1950 -103.9869 59° Northeast 493 567 37,000  Level Albuquerque Center
Thu 04:30:54 PM 37.2503 -103.8686 60° Northeast 495 570 37,000  Level Denver Center
Thu 04:31:56 PM 37.3283 -103.7053 59° Northeast 495 570 37,000  Level Denver Center
Thu 04:32:58 PM 37.3956 -103.5661 59° Northeast 494 568 37,000  Level Denver Center
Thu 04:34:00 PM 37.4728 -103.4017 59° Northeast 493 567 37,000  Level Denver Center
Thu 04:36:17 PM 37.6278 -103.0717 59° Northeast 492 566 37,000  Level Albuquerque Center
Thu 04:37:06 PM 37.6828 -102.9550 59° Northeast 489 563 37,000  Level Denver Center
Thu 04:39:10 PM 37.8239 -102.6506 60° Northeast 484 557 37,000  Level Denver Center
Thu 04:45:05 PM 38.3769 -101.9294 47° Northeast 486 559 37,000  Level FlightAware ADS-B
Thu 04:45:22 PM 38.3869 -101.9153 63° Northeast 478 550 37,000  Level Denver Center
Thu 04:45:26 PM 38.3976 -101.8949 59° Northeast 494 568 37,000  Level FlightAware ADS-B
Thu 04:47:35 PM 38.5386 -101.5616 62° Northeast 492 566 37,000  Level FlightAware ADS-B
Thu 04:50:00 PM 38.6750 -101.2154 63° Northeast  Level FlightAware Approximate
Thu 04:51:00 PM 38.7558 -101.0361 63° Northeast 494 568 37,000  Level FlightAware ADS-B
Thu 04:52:49 PM 38.8708 -100.7556 65° Northeast 491 565 37,000  Level Denver Center
Thu 04:53:03 PM 38.8869 -100.7154 63° Northeast 497 572 37,000  Level FlightAware ADS-B
Thu 04:53:54 PM 38.9357 -100.5951 63° Northeast 497 572 37,000  Level FlightAware ADS-B
Thu 04:54:52 PM 39.0062 -100.4202 63° Northeast 498 573 37,000  Level FlightAware ADS-B
Thu 04:55:05 PM 39.0106 -100.4081 63° Northeast 496 571 37,000  Level Denver Center
Thu 04:55:33 PM 39.0473 -100.3177 63° Northeast 499 574 37,000  Level FlightAware ADS-B
Thu 04:57:09 PM 39.1411 -100.0789 63° Northeast 498 573 37,000  Level Denver Center
Thu 04:58:00 PM 39.1768 -99.9586 65° Northeast  Level FlightAware Approximate
Thu 04:58:11 PM 39.2153 -99.8956 62° Northeast 498 573 37,000  Level Denver Center
Thu 05:03:51 PM 39.5690 -98.9858 64° Northeast 501 577 37,000  Level FlightAware ADS-B
Thu 05:04:22 PM 39.6013 -98.9016 64° Northeast 503 579 37,000  Level FlightAware ADS-B
Thu 05:05:00 PM 39.6409 -98.7983 64° Northeast 503 579 37,000  Level FlightAware ADS-B
Thu 05:05:40 PM 39.6820 -98.6905 64° Northeast 504 580 37,000  Level FlightAware ADS-B
Thu 05:06:11 PM 39.7137 -98.6072 64° Northeast 505 581 37,000 -381 Level FlightAware ADS-B
Thu 05:06:43 PM 39.7468 -98.5187 64° Northeast 504 580 36,600 -857 Descending FlightAware ADS-B
Thu 05:07:14 PM 39.7782 -98.4342 64° Northeast 503 579 36,100 -968 Descending FlightAware ADS-B
Thu 05:07:45 PM 39.8088 -98.3520 64° Northeast 497 572 35,600 -885 Descending FlightAware ADS-B
Thu 05:08:15 PM 39.8391 -98.2715 64° Northeast 495 570 35,200 -600 Descending FlightAware ADS-B
Thu 05:08:45 PM 39.8692 -98.1914 64° Northeast 491 565 35,000 -197 Descending FlightAware ADS-B
Thu 05:09:16 PM 39.8996 -98.1103 64° Northeast 489 563 35,000  Level FlightAware ADS-B
Thu 05:09:48 PM 39.9316 -98.0248 64° Northeast 488 562 35,000  Level FlightAware ADS-B
Thu 05:10:18 PM 39.9611 -97.9452 64° Northeast 487 560 35,000  Level FlightAware ADS-B
Thu 05:10:49 PM 39.9912 -97.8642 64° Northeast 485 558 35,000  Level FlightAware ADS-B
Thu 05:11:19 PM 40.0204 -97.7849 64° Northeast 485 558 35,000  Level FlightAware ADS-B
Thu 05:11:50 PM 40.0500 -97.7043 64° Northeast 488 562 35,000  Level FlightAware ADS-B
Thu 05:12:23 PM 40.0819 -97.6172 64° Northeast 488 562 35,000  Level FlightAware ADS-B
Thu 05:12:54 PM 40.1124 -97.5338 64° Northeast 488 562 35,000  Level FlightAware ADS-B
Thu 05:13:24 PM 40.1417 -97.4534 65° Northeast 488 562 35,000  Level FlightAware ADS-B
Thu 05:14:08 PM 40.1841 -97.3371 65° Northeast 489 563 35,000  Level FlightAware ADS-B
Thu 05:14:38 PM 40.2135 -97.2557 65° Northeast 493 567 35,000  Level FlightAware ADS-B
Thu 05:15:08 PM 40.2428 -97.1748 65° Northeast 495 570 35,000  Level FlightAware ADS-B
Thu 05:15:39 PM 40.2728 -97.0908 65° Northeast 496 571 35,000  Level FlightAware ADS-B
Thu 05:16:10 PM 40.3020 -97.0087 65° Northeast 497 572 35,000  Level FlightAware ADS-B
Thu 05:16:40 PM 40.3312 -96.9271 65° Northeast 498 573 35,000  Level FlightAware ADS-B
Thu 05:17:10 PM 40.3612 -96.8432 65° Northeast 499 574 35,000  Level FlightAware ADS-B
Thu 05:17:40 PM 40.3903 -96.7615 65° Northeast 499 574 35,000  Level FlightAware ADS-B
Thu 05:18:10 PM 40.4198 -96.6788 65° Northeast 499 574 35,000  Level FlightAware ADS-B
Thu 05:18:41 PM 40.4495 -96.5957 65° Northeast 499 574 35,000  Level FlightAware ADS-B
Thu 05:19:12 PM 40.4794 -96.5110 65° Northeast 498 573 35,000  Level FlightAware ADS-B
Thu 05:19:43 PM 40.5091 -96.4261 65° Northeast 498 573 35,000  Level FlightAware ADS-B
Thu 05:20:13 PM 40.5382 -96.3428 65° Northeast 499 574 35,000  Level FlightAware ADS-B
Thu 05:20:43 PM 40.5673 -96.2593 65° Northeast 501 577 35,000  Level FlightAware ADS-B
Thu 05:21:14 PM 40.5972 -96.1735 66° East 502 578 35,000  Level FlightAware ADS-B
Thu 05:21:44 PM 40.6261 -96.0901 66° East 504 580 35,000  Level FlightAware ADS-B
Thu 05:22:14 PM 40.6551 -96.0064 66° East 505 581 35,000  Level FlightAware ADS-B
Thu 05:22:46 PM 40.6858 -95.9175 66° East 505 581 35,000  Level FlightAware ADS-B
Thu 05:23:17 PM 40.7153 -95.8321 66° East 505 581 35,000  Level FlightAware ADS-B
Thu 05:23:47 PM 40.7443 -95.7480 66° East 505 581 35,000  Level FlightAware ADS-B
Thu 05:24:17 PM 40.7733 -95.6636 66° East 504 580 35,000  Level FlightAware ADS-B
Thu 05:24:48 PM 40.8028 -95.5777 66° East 503 579 35,000  Level FlightAware ADS-B
Thu 05:25:22 PM 40.8354 -95.4815 66° East 504 580 35,000  Level FlightAware ADS-B
Thu 05:25:52 PM 40.8641 -95.3966 66° East 503 579 35,000  Level FlightAware ADS-B
Thu 05:26:23 PM 40.8927 -95.3116 66° East 503 579 35,000  Level FlightAware ADS-B
Thu 05:26:54 PM 40.9222 -95.2241 66° East 503 579 35,000  Level FlightAware ADS-B
Thu 05:27:24 PM 40.9504 -95.1401 66° East 503 579 35,000  Level FlightAware ADS-B
Thu 05:27:55 PM 40.9801 -95.0517 66° East 503 579 35,000  Level FlightAware ADS-B
Thu 05:28:25 PM 41.0083 -94.9672 66° East 505 581 35,000  Level FlightAware ADS-B
Thu 05:29:00 PM 41.0404 -94.8708 66° East 506 582 35,000  Level FlightAware ADS-B
Thu 05:29:30 PM 41.0688 -94.7849 66° East 509 586 35,000  Level FlightAware ADS-B
Thu 05:30:00 PM 41.0977 -94.6981 66° East 509 586 35,000  Level FlightAware ADS-B
Thu 05:30:31 PM 41.1263 -94.6108 67° East 509 586 35,000 -98 Level FlightAware ADS-B
Thu 05:31:01 PM 41.1548 -94.5246 66° East 511 588 34,900 -689 Descending FlightAware ADS-B
Thu 05:31:32 PM 41.1835 -94.4365 67° East 503 579 34,300 -1,574 Descending FlightAware ADS-B
Thu 05:32:02 PM 41.2111 -94.3518 67° East 495 570 33,300 -2,000 Descending FlightAware ADS-B
Thu 05:32:32 PM 41.2385 -94.2684 67° East 488 562 32,300 -2,000 Descending FlightAware ADS-B
Thu 05:33:02 PM 41.2652 -94.1859 67° East 483 556 31,300 -1,967 Descending FlightAware ADS-B
Thu 05:33:33 PM 41.2921 -94.1022 67° East 476 548 30,300 -1,355 Descending FlightAware ADS-B
Thu 05:34:04 PM 41.3182 -94.0212 67° East 467 537 29,900 -871 Descending FlightAware ADS-B
Thu 05:34:35 PM 41.3446 -93.9394 67° East 471 542 29,400 -1,161 Descending FlightAware ADS-B
Thu 05:35:06 PM 41.3713 -93.8559 67° East 468 539 28,700 -1,548 Descending FlightAware ADS-B
Thu 05:35:37 PM 41.3972 -93.7751 67° East 461 531 27,800 -1,622 Descending FlightAware ADS-B
Thu 05:36:20 PM 41.4269 -93.6817 67° East 460 529 26,700 -1,714 Descending Chicago Center
Thu 05:37:22 PM 41.4675 -93.5244 71° East 455 524 24,800 -1,779 Descending Chicago Center
Thu 05:43:52 PM 41.6857 -92.5936 73° East 361 415 13,300 -1,723 Descending FlightAware ADS-B
Thu 05:45:40 PM 41.7388 -92.3614 73° East 342 394 10,500 -1,391 Descending FlightAware ADS-B
Thu 05:46:10 PM 41.7521 -92.3028 73° East 324 373 10,100 -1,043 Descending FlightAware ADS-B
Thu 05:46:26 PM 41.7593 -92.2717 73° East 319 367 9,700 -1,125 Descending FlightAware ADS-B
Thu 05:46:42 PM 41.7657 -92.2443 73° East 313 360 9,500 -1,105 Descending FlightAware ADS-B
Thu 05:47:42 PM 41.7876 -92.1340 90° East 301 346 8,300 -1,200 Descending FlightAware ADS-B
Thu 05:47:57 PM 41.7866 -92.1059 94° East 299 344 8,000 -1,200 Descending FlightAware ADS-B
Thu 05:48:27 PM 41.7833 -92.0525 95° East 291 335 7,400 -1,333 Descending FlightAware ADS-B
Thu 05:48:42 PM 41.7817 -92.0268 94° East 294 338 7,000 -1,467 Descending FlightAware ADS-B
Thu 05:49:12 PM 41.7787 -91.9700 94° East 288 331 6,300 -915 Descending FlightAware ADS-B
Thu 05:49:41 PM 41.7763 -91.9197 94° East 273 314 6,100 -200 Descending FlightAware ADS-B
Thu 05:50:12 PM 41.7738 -91.8686 94° East 272 313 6,100  Level FlightAware ADS-B
Thu 05:50:27 PM 41.7725 -91.8430 94° East 271 312 6,100 -133 Level FlightAware ADS-B
Thu 05:50:57 PM 41.7701 -91.7970 93° East 253 291 6,000  Descending FlightAware ADS-B
Thu 05:51:12 PM 41.7691 -91.7717 93° East 250 288 6,100  Climbing FlightAware ADS-B
Thu 05:51:41 PM 41.7667 -91.7290 94° East 222 255 6,000  Descending FlightAware ADS-B
Thu 05:51:57 PM 41.7656 -91.7081 95° East 212 244 6,100  Climbing FlightAware ADS-B
Thu 05:52:26 PM 41.7632 -91.6725 95° East 201 231 6,000 -133 Descending FlightAware ADS-B
Thu 05:52:42 PM 41.7618 -91.6511 95° East 200 230 6,000 -194 Level FlightAware ADS-B
Thu 05:52:57 PM 41.7606 -91.6335 95° East 195 224 5,900 -1,000 Descending FlightAware ADS-B
Thu 05:53:12 PM 41.7595 -91.6150 95° East 202 232 5,500 -1,400 Descending FlightAware ADS-B
Thu 05:53:27 PM 41.7583 -91.5959 94° East 202 232 5,200 -1,286 Descending FlightAware ADS-B
Thu 05:53:54 PM 41.7575 -91.5636 71° East 195 224 4,600 -1,256 Descending FlightAware ADS-B
Thu 05:54:10 PM 41.7642 -91.5485 37° Northeast 182 209 4,300 -711 Descending FlightAware ADS-B
Thu 05:56:26 PM 41.8674 -91.5534 338° Northwest 161 185 2,800 -592 Descending FlightAware ADS-B
Thu 05:56:42 PM 41.8761 -91.5615 311° West 156 180 2,800 -200 Level FlightAware ADS-B
Thu 05:56:56 PM 41.8821 -91.5746 285° West 162 186 2,700 -600 Descending FlightAware ADS-B
Thu 05:57:12 PM 41.8836 -91.5903 271° West 163 188 2,500 -800 Descending FlightAware ADS-B
Thu 05:57:41 PM 41.8836 -91.6199 270° West 157 181 2,100 -818 Descending FlightAware ADS-B
Thu 05:57:56 PM 41.8837 -91.6331 269° West 147 169 1,900 -800 Descending FlightAware ADS-B
Thu 05:58:11 PM 41.8837 -91.6477 271° West 148 170 1,700 -774 Descending FlightAware ADS-B
Thu 05:58:27 PM 41.8839 -91.6619 272° West 149 171 1,500  Descending FlightAware ADS-B
Thu 05:59:07 PM 41.8819 -91.6939 272° West 164 189 1,700 300 Climbing Chicago Center

Login

Don't have an account? Register now (free) for customized features, flight alerts, and more!